Time;durP1;ratioP1;P1;durP2;ratioP2;P2;SDS_P1;SDS_P2;PMS_P1;PMS_P2;Temp;Humidity;BMP_temperature;BMP_pressure;BME280_temperature;BME280_humidity;BME280_pressure;Samples;Min_cycle;Max_cycle;Signal;HPM_P1;HPM_P2
2022/07/23 00:00:35;;;;;;;8.63;7.93;;;23.30;99.90;;;;;;4964433;28;20443;-96
2022/07/23 00:03:00;;;;;;;8.10;7.40;;;23.20;99.90;;;;;;4935128;28;20972;-95
2022/07/23 00:05:26;;;;;;;8.67;7.87;;;23.30;99.90;;;;;;4935474;28;20277;-94
2022/07/23 00:07:52;;;;;;;8.70;7.80;;;23.40;99.90;;;;;;4936530;28;20216;-96
2022/07/23 00:10:17;;;;;;;7.97;7.23;;;23.40;99.60;;;;;;4933356;28;20191;-96
2022/07/23 00:12:43;;;;;;;7.90;7.30;;;23.40;99.20;;;;;;4930518;28;20235;-95
2022/07/23 00:15:10;;;;;;;8.07;7.37;;;23.40;99.50;;;;;;4964396;28;20217;-95
2022/07/23 00:17:36;;;;;;;8.23;7.63;;;23.30;99.80;;;;;;4939246;28;20187;-95
2022/07/23 00:20:02;;;;;;;7.30;6.70;;;23.30;99.80;;;;;;4943200;28;20446;-95
2022/07/23 00:22:29;;;;;;;8.00;7.27;;;23.20;99.70;;;;;;4934520;28;20249;-96
2022/07/23 00:24:58;;;;;;;7.80;7.20;;;23.20;99.70;;;;;;4931175;28;20443;-96
2022/07/23 00:27:24;;;;;;;8.53;7.63;;;23.20;99.50;;;;;;4935352;28;21120;-96
2022/07/23 00:29:50;;;;;;;8.03;7.33;;;23.20;99.40;;;;;;4936863;28;20479;-96
2022/07/23 00:32:16;;;;;;;8.50;7.67;;;23.20;99.70;;;;;;4922227;28;20570;-96
2022/07/23 00:34:41;;;;;;;7.60;7.00;;;23.30;99.50;;;;;;4939839;28;20292;-96
2022/07/23 00:37:11;;;;;;;8.03;7.43;;;23.30;99.70;;;;;;4934559;28;20551;-95
2022/07/23 00:39:40;;;;;;;7.90;7.20;;;23.20;99.90;;;;;;4945260;28;20837;-95
2022/07/23 00:42:06;;;;;;;8.53;7.27;;;23.20;99.90;;;;;;4936706;28;20454;-94
2022/07/23 00:44:32;;;;;;;8.37;7.67;;;23.20;99.90;;;;;;4930637;28;20187;-94
2022/07/23 00:47:12;;;;;;;7.53;6.83;;;23.30;99.90;;;;;;4933040;28;20225;-95
2022/07/23 00:49:50;;;;;;;7.73;7.23;;;23.10;99.90;;;;;;4934686;28;20195;-92
2022/07/23 00:52:19;;;;;;;6.47;5.97;;;22.90;99.90;;;;;;4931368;28;20490;-95
2022/07/23 00:54:44;;;;;;;6.20;5.60;;;23.00;99.90;;;;;;4933716;28;20982;-96
2022/07/23 00:57:10;;;;;;;5.70;5.30;;;23.00;99.80;;;;;;4950262;28;20454;-94
2022/07/23 00:59:38;;;;;;;7.00;5.47;;;23.00;99.40;;;;;;4927149;28;20294;-95
2022/07/23 01:02:04;;;;;;;6.47;5.70;;;22.90;99.30;;;;;;4932082;28;20187;-95
2022/07/23 01:04:30;;;;;;;5.20;4.80;;;22.90;99.20;;;;;;4931866;28;20447;-94
2022/07/23 01:06:56;;;;;;;5.93;5.43;;;22.80;99.20;;;;;;4934558;28;20489;-93
2022/07/23 01:09:22;;;;;;;6.23;5.80;;;22.70;99.30;;;;;;4932409;28;20175;-94
2022/07/23 01:11:48;;;;;;;5.70;5.30;;;22.70;99.60;;;;;;4934357;28;21660;-93
2022/07/23 01:14:17;;;;;;;6.57;6.07;;;22.70;99.60;;;;;;4955790;28;20218;-93
2022/07/23 01:16:44;;;;;;;5.63;5.20;;;22.70;99.70;;;;;;4962138;28;20167;-95
2022/07/23 01:19:10;;;;;;;5.43;5.03;;;22.70;99.80;;;;;;4935255;28;20465;-94
2022/07/23 01:21:38;;;;;;;5.90;5.50;;;22.70;99.70;;;;;;4934811;28;20800;-94
2022/07/23 01:24:05;;;;;;;6.17;5.77;;;22.70;99.80;;;;;;4931881;28;20443;-94
2022/07/23 01:26:30;;;;;;;6.10;5.70;;;22.70;99.90;;;;;;4945911;28;20451;-94
2022/07/23 01:28:56;;;;;;;5.90;5.50;;;22.70;99.90;;;;;;4940196;28;20458;-93
2022/07/23 01:31:22;;;;;;;5.40;5.00;;;22.60;99.90;;;;;;4963452;28;20222;-93
2022/07/23 01:33:48;;;;;;;5.80;5.40;;;22.50;99.90;;;;;;4932684;28;20211;-94
2022/07/23 01:36:14;;;;;;;6.67;6.17;;;22.50;99.60;;;;;;4930597;28;20466;-95
2022/07/23 01:38:50;;;;;;;6.57;6.00;;;22.50;99.80;;;;;;4946393;28;20451;-95
2022/07/23 01:41:16;;;;;;;5.77;5.37;;;22.50;99.40;;;;;;4943546;28;20672;-95
2022/07/23 01:43:42;;;;;;;5.40;5.00;;;22.60;99.40;;;;;;4933718;28;20460;-94
2022/07/23 01:46:08;;;;;;;6.20;5.80;;;22.70;99.00;;;;;;4930859;28;20209;-95
2022/07/23 01:48:33;;;;;;;6.93;6.37;;;22.70;99.20;;;;;;4933788;28;20389;-95
2022/07/23 01:51:01;;;;;;;5.90;5.40;;;22.60;99.70;;;;;;4935684;28;20281;-95
2022/07/23 01:53:26;;;;;;;5.37;4.97;;;22.60;99.90;;;;;;4934981;28;20729;-95
2022/07/23 01:55:52;;;;;;;6.60;6.00;;;22.60;99.90;;;;;;4940667;28;20505;-95
2022/07/23 01:58:23;;;;;;;5.50;5.10;;;22.40;99.90;;;;;;4929167;28;20195;-94
2022/07/23 02:00:48;;;;;;;6.07;5.67;;;22.30;99.90;;;;;;4928909;28;20566;-94
2022/07/23 02:03:17;;;;;;;6.80;6.30;;;22.20;99.90;;;;;;4927622;28;21611;-94
2022/07/23 02:05:52;;;;;;;6.10;5.70;;;22.20;99.90;;;;;;4928513;28;20217;-94
2022/07/23 02:08:21;;;;;;;5.80;5.40;;;22.30;99.90;;;;;;4935363;28;20449;-94
2022/07/23 02:10:55;;;;;;;6.40;5.97;;;22.20;99.90;;;;;;4938315;28;20453;-96
2022/07/23 02:13:26;;;;;;;5.90;5.40;;;22.20;99.90;;;;;;4958306;28;20455;-96
2022/07/23 02:15:52;;;;;;;5.23;4.93;;;22.10;99.90;;;;;;4947894;28;20484;-95
2022/07/23 02:18:17;;;;;;;5.97;5.47;;;22.10;99.90;;;;;;4931975;28;20538;-94
2022/07/23 02:20:44;;;;;;;6.50;5.90;;;22.20;99.90;;;;;;4967748;28;20271;-94
2022/07/23 02:23:10;;;;;;;5.50;5.10;;;22.30;99.90;;;;;;4930678;28;20175;-94
2022/07/23 02:25:36;;;;;;;5.90;5.33;;;22.30;99.90;;;;;;4933257;28;20435;-96
2022/07/23 02:28:02;;;;;;;5.63;5.23;;;22.30;99.90;;;;;;4930558;28;20593;-95
2022/07/23 02:30:27;;;;;;;5.90;5.40;;;22.30;99.90;;;;;;4971300;28;20234;-95
2022/07/23 02:32:53;;;;;;;6.70;6.03;;;22.30;99.90;;;;;;4931128;28;20226;-94
2022/07/23 02:35:18;;;;;;;6.27;5.63;;;22.30;99.90;;;;;;4962667;28;20233;-94
2022/07/23 02:37:44;;;;;;;6.50;5.90;;;22.30;99.90;;;;;;4934650;28;20271;-94
2022/07/23 02:40:10;;;;;;;6.70;6.20;;;22.30;99.90;;;;;;4941513;28;20246;-94
2022/07/23 02:42:36;;;;;;;6.40;5.90;;;22.30;99.90;;;;;;4934156;28;20203;-94
2022/07/23 02:45:01;;;;;;;6.10;5.60;;;22.40;99.90;;;;;;4934025;28;20907;-94
2022/07/23 02:47:27;;;;;;;6.20;5.60;;;22.30;99.90;;;;;;4930952;28;20211;-93
2022/07/23 02:49:52;;;;;;;5.90;5.50;;;22.30;99.90;;;;;;4924592;28;20222;-94
2022/07/23 02:52:18;;;;;;;6.47;5.97;;;22.30;99.90;;;;;;4925363;28;20212;-95
2022/07/23 02:54:43;;;;;;;6.13;5.60;;;22.30;99.90;;;;;;4933698;28;20288;-95
2022/07/23 02:57:09;;;;;;;6.03;5.63;;;22.30;99.90;;;;;;4933950;28;20912;-94
2022/07/23 02:59:47;;;;;;;6.30;5.80;;;22.30;99.90;;;;;;4940777;28;20190;-96
2022/07/23 03:02:17;;;;;;;6.10;5.60;;;22.30;99.90;;;;;;4936498;28;20677;-95
2022/07/23 03:04:42;;;;;;;7.13;6.63;;;22.20;99.90;;;;;;4929658;28;20509;-95
2022/07/23 03:07:08;;;;;;;6.67;6.07;;;22.10;99.90;;;;;;4930754;28;20557;-96
2022/07/23 03:09:34;;;;;;;6.37;5.87;;;22.00;99.90;;;;;;4935059;28;20202;-95
2022/07/23 03:12:02;;;;;;;6.20;5.70;;;22.00;99.90;;;;;;4931261;28;20246;-94
2022/07/23 03:14:28;;;;;;;6.10;5.50;;;22.00;99.90;;;;;;4934013;28;20183;-94
2022/07/23 03:16:56;;;;;;;6.00;5.60;;;22.00;99.90;;;;;;4932305;28;20453;-94
2022/07/23 03:19:21;;;;;;;7.17;6.60;;;22.00;99.90;;;;;;4924811;28;20630;-94
2022/07/23 03:21:47;;;;;;;6.17;5.60;;;21.90;99.90;;;;;;4931582;28;20450;-95
2022/07/23 03:24:12;;;;;;;6.87;6.37;;;21.90;99.90;;;;;;4936820;28;20199;-95
2022/07/23 03:26:39;;;;;;;6.57;5.97;;;21.80;99.90;;;;;;4944566;28;20642;-95
2022/07/23 03:29:05;;;;;;;7.10;6.53;;;21.70;99.90;;;;;;4938427;28;20210;-94
2022/07/23 03:31:31;;;;;;;6.07;5.57;;;21.70;99.90;;;;;;4933199;28;20474;-95
2022/07/23 03:33:57;;;;;;;7.17;6.57;;;21.60;99.90;;;;;;4937597;28;20225;-95
2022/07/23 03:36:22;;;;;;;7.30;6.60;;;21.60;99.90;;;;;;4935640;28;20452;-95
2022/07/23 03:38:48;;;;;;;7.30;6.70;;;21.50;99.90;;;;;;4935733;28;20454;-95
2022/07/23 03:41:14;;;;;;;5.67;5.23;;;21.60;99.90;;;;;;4943086;28;20463;-95
2022/07/23 03:43:39;;;;;;;7.40;6.80;;;21.60;99.90;;;;;;4933858;28;20207;-96
2022/07/23 03:46:05;;;;;;;7.20;5.90;;;21.40;99.90;;;;;;4930911;28;20282;-94
2022/07/23 03:48:30;;;;;;;6.87;6.27;;;21.40;99.90;;;;;;4925656;28;20199;-94
2022/07/23 03:50:56;;;;;;;7.97;5.70;;;21.40;99.90;;;;;;4929606;28;20191;-93
2022/07/23 03:53:21;;;;;;;6.47;5.87;;;21.40;99.90;;;;;;4928934;28;20281;-93
2022/07/23 03:55:47;;;;;;;6.60;6.10;;;21.20;99.90;;;;;;4933789;28;20190;-94
2022/07/23 03:58:12;;;;;;;6.73;6.23;;;21.10;99.90;;;;;;4932699;28;20202;-94
2022/07/23 04:00:38;;;;;;;6.37;5.87;;;21.00;99.90;;;;;;4927659;28;20227;-93
2022/07/23 04:03:04;;;;;;;6.60;6.00;;;21.00;99.90;;;;;;4922646;28;20188;-93
2022/07/23 04:05:29;;;;;;;6.37;5.87;;;21.00;99.90;;;;;;4930905;28;20195;-95
2022/07/23 04:07:55;;;;;;;6.57;6.00;;;21.00;99.90;;;;;;4928880;28;20681;-93
2022/07/23 04:10:20;;;;;;;6.50;5.90;;;21.10;99.90;;;;;;4930110;28;20366;-92
2022/07/23 04:12:46;;;;;;;6.30;5.70;;;21.20;99.90;;;;;;4938954;28;20558;-94
2022/07/23 04:15:11;;;;;;;7.07;6.37;;;21.20;99.90;;;;;;4930071;28;20725;-93
2022/07/23 04:17:37;;;;;;;7.63;6.93;;;21.20;99.90;;;;;;4959883;28;20183;-92
2022/07/23 04:20:03;;;;;;;7.20;6.70;;;21.20;99.90;;;;;;4934945;28;22023;-93
2022/07/23 04:22:28;;;;;;;6.93;6.30;;;21.10;99.90;;;;;;4930333;28;20191;-93
2022/07/23 04:24:54;;;;;;;7.10;6.50;;;21.10;99.90;;;;;;4941678;28;24476;-94
2022/07/23 04:27:19;;;;;;;7.50;6.90;;;21.00;99.90;;;;;;4932723;28;20321;-93
2022/07/23 04:29:45;;;;;;;8.00;7.30;;;21.00;99.90;;;;;;4935070;28;20209;-93
2022/07/23 04:32:10;;;;;;;7.07;6.57;;;21.00;99.90;;;;;;4931996;28;20226;-93
2022/07/23 04:34:36;;;;;;;7.27;6.67;;;21.00;99.90;;;;;;4929085;28;20195;-93
2022/07/23 04:37:01;;;;;;;6.97;6.33;;;21.00;99.90;;;;;;4922729;28;20194;-92
2022/07/23 04:39:27;;;;;;;7.33;6.70;;;21.10;99.90;;;;;;4947996;28;20191;-91
2022/07/23 04:41:52;;;;;;;7.33;6.67;;;21.00;99.90;;;;;;4931497;28;20194;-94
2022/07/23 04:44:18;;;;;;;8.33;7.63;;;21.10;99.90;;;;;;4964713;28;20239;-93
2022/07/23 04:46:44;;;;;;;7.60;7.07;;;21.10;99.90;;;;;;4923990;28;20191;-93
2022/07/23 04:49:09;;;;;;;7.40;6.90;;;21.20;99.90;;;;;;4943987;28;20283;-92
2022/07/23 04:51:35;;;;;;;8.47;7.67;;;21.30;99.90;;;;;;4932611;28;20669;-92
2022/07/23 04:54:00;;;;;;;8.17;7.47;;;21.30;99.90;;;;;;4930410;28;20183;-91
2022/07/23 04:56:26;;;;;;;7.93;7.33;;;21.30;99.90;;;;;;4925716;28;20199;-92
2022/07/23 04:58:51;;;;;;;7.40;6.70;;;21.30;99.90;;;;;;4925278;28;20191;-89
2022/07/23 05:01:17;;;;;;;7.57;6.97;;;21.30;99.90;;;;;;4920181;28;20772;-92
2022/07/23 05:03:42;;;;;;;8.03;7.37;;;21.30;99.90;;;;;;4930491;28;20327;-92
2022/07/23 05:06:10;;;;;;;9.17;8.33;;;21.30;99.90;;;;;;4930448;28;20183;-90
2022/07/23 05:08:36;;;;;;;8.67;7.97;;;21.50;99.90;;;;;;4925545;28;20664;-93
2022/07/23 05:11:01;;;;;;;7.43;6.70;;;21.70;99.90;;;;;;4929041;28;20440;-93
2022/07/23 05:13:27;;;;;;;7.87;7.10;;;21.80;99.90;;;;;;4941242;28;20218;-91
2022/07/23 05:15:52;;;;;;;7.70;7.10;;;21.80;99.90;;;;;;4957217;28;21509;-92
2022/07/23 05:18:18;;;;;;;8.20;7.50;;;21.90;99.90;;;;;;4928958;28;20238;-94
2022/07/23 05:20:44;;;;;;;8.90;8.07;;;21.90;99.90;;;;;;4924310;28;20206;-92
2022/07/23 05:23:09;;;;;;;7.57;6.87;;;21.90;99.90;;;;;;4928400;28;20720;-92
2022/07/23 05:25:35;;;;;;;8.90;8.07;;;21.90;99.90;;;;;;4927463;28;20186;-92
2022/07/23 05:28:01;;;;;;;8.07;7.43;;;21.80;99.90;;;;;;4926685;28;20650;-91
2022/07/23 05:30:26;;;;;;;7.83;7.23;;;21.70;99.90;;;;;;4923296;28;20219;-93
2022/07/23 05:32:52;;;;;;;7.73;7.03;;;21.70;99.90;;;;;;4945081;28;20218;-94
2022/07/23 05:35:17;;;;;;;8.00;7.40;;;21.70;99.90;;;;;;4927759;28;23575;-92
2022/07/23 05:37:52;;;;;;;8.27;7.50;;;21.70;99.90;;;;;;4923118;28;20202;-93
2022/07/23 05:40:18;;;;;;;7.90;7.30;;;21.80;99.90;;;;;;4930927;28;20281;-93
2022/07/23 05:42:46;;;;;;;8.27;7.67;;;21.90;99.90;;;;;;4926380;28;20972;-95
2022/07/23 05:45:15;;;;;;;9.47;8.63;;;21.90;99.90;;;;;;4927682;28;21285;-96
2022/07/23 05:47:46;;;;;;;9.37;8.47;;;21.80;99.90;;;;;;4962309;28;20448;-93
2022/07/23 05:50:14;;;;;;;8.30;7.50;;;21.80;99.90;;;;;;4941509;28;20446;-95
2022/07/23 05:52:40;;;;;;;9.10;8.30;;;21.90;99.90;;;;;;4936218;28;21529;-94
2022/07/23 05:55:15;;;;;;;9.90;9.00;;;21.90;99.90;;;;;;4932703;28;20528;-95
2022/07/23 05:57:41;;;;;;;9.47;8.77;;;21.80;99.90;;;;;;4927361;28;20182;-93
2022/07/23 06:00:11;;;;;;;8.70;7.90;;;21.80;99.90;;;;;;4923512;28;20442;-93
2022/07/23 06:02:40;;;;;;;9.07;8.47;;;21.90;99.90;;;;;;4934115;28;20190;-95
2022/07/23 06:09:34;;;;;;;9.63;8.83;;;22.10;99.90;;;;;;4946878;28;20422;-96
2022/07/23 06:12:40;;;;;;;;;;;;;;;;;;;;;
2022/07/23 06:15:09;;;;;;;9.00;8.30;;;22.40;99.90;;;;;;4933268;28;20435;-96
2022/07/23 06:17:47;;;;;;;8.77;8.10;;;22.30;99.90;;;;;;4929375;28;20623;-96
2022/07/23 06:20:13;;;;;;;9.23;8.43;;;22.50;99.90;;;;;;4927408;28;20434;-95
2022/07/23 06:22:42;;;;;;;10.03;9.03;;;22.40;99.90;;;;;;4930093;28;20462;-96
2022/07/23 06:25:08;;;;;;;9.40;8.60;;;22.50;99.90;;;;;;4930248;28;20187;-96
2022/07/23 06:27:34;;;;;;;9.07;8.27;;;22.50;99.90;;;;;;4946596;28;20446;-96
2022/07/23 06:30:00;;;;;;;9.87;9.07;;;22.60;99.90;;;;;;4937201;28;20467;-95
2022/07/23 06:32:26;;;;;;;9.87;9.07;;;22.60;99.90;;;;;;4931052;28;20215;-96
2022/07/23 06:34:51;;;;;;;10.10;9.20;;;22.50;99.90;;;;;;4932077;28;20787;-96
2022/07/23 06:37:22;;;;;;;10.17;9.33;;;22.60;99.90;;;;;;4940597;28;21489;-95
2022/07/23 06:40:02;;;;;;;9.60;8.90;;;22.60;99.90;;;;;;4947622;28;20197;-96
2022/07/23 06:42:28;;;;;;;9.93;9.13;;;22.70;99.90;;;;;;4951800;28;20503;-91
2022/07/23 06:44:53;;;;;;;8.93;8.30;;;22.80;99.90;;;;;;4925878;28;20530;-90
2022/07/23 06:47:19;;;;;;;9.40;8.60;;;22.90;99.90;;;;;;4935176;28;20215;-91
2022/07/23 06:49:44;;;;;;;9.10;8.40;;;23.00;99.90;;;;;;4929932;28;20188;-91
2022/07/23 06:52:10;;;;;;;9.17;8.43;;;23.30;99.90;;;;;;4927323;28;20317;-91
2022/07/23 06:54:36;;;;;;;12.13;9.03;;;23.50;99.90;;;;;;4926630;28;20179;-91
2022/07/23 06:57:01;;;;;;;9.40;8.77;;;23.50;99.90;;;;;;4936054;28;20210;-92
2022/07/23 06:59:30;;;;;;;9.47;8.70;;;23.50;99.90;;;;;;4924052;28;20730;-92
2022/07/23 07:01:57;;;;;;;11.67;10.10;;;23.70;99.90;;;;;;4929735;28;20230;-91
2022/07/23 07:04:23;;;;;;;11.10;8.97;;;23.50;99.90;;;;;;4937734;28;20443;-91
2022/07/23 07:06:48;;;;;;;10.90;10.00;;;23.10;99.90;;;;;;4932520;28;20441;-91
2022/07/23 07:09:14;;;;;;;10.00;9.10;;;23.20;99.90;;;;;;4936826;28;20267;-94
2022/07/23 07:11:39;;;;;;;9.70;8.90;;;23.30;99.90;;;;;;4922872;28;20219;-90
2022/07/23 07:14:06;;;;;;;9.30;8.60;;;23.30;99.90;;;;;;4921240;28;20986;-91
2022/07/23 07:16:31;;;;;;;9.97;8.97;;;23.40;99.90;;;;;;4920957;28;20187;-91
2022/07/23 07:18:57;;;;;;;9.30;8.50;;;23.40;99.90;;;;;;4926684;28;20443;-92
2022/07/23 07:21:25;;;;;;;9.07;8.13;;;23.50;99.90;;;;;;4920862;28;20195;-92
2022/07/23 07:23:50;;;;;;;8.60;8.00;;;23.60;99.90;;;;;;4923650;28;20229;-92
2022/07/23 07:26:18;;;;;;;9.10;8.30;;;23.80;99.90;;;;;;4923979;28;20966;-92
2022/07/23 07:28:44;;;;;;;9.27;8.57;;;24.00;99.90;;;;;;4942123;28;20187;-93
2022/07/23 07:31:09;;;;;;;9.63;8.73;;;24.20;99.90;;;;;;4957925;28;20509;-89
2022/07/23 07:33:37;;;;;;;8.93;8.30;;;24.40;99.90;;;;;;4926996;28;20589;-92
2022/07/23 07:36:04;;;;;;;9.27;8.37;;;24.60;99.90;;;;;;4924471;28;20206;-90
2022/07/23 07:38:29;;;;;;;8.07;7.53;;;24.80;99.90;;;;;;4932721;28;20980;-93
2022/07/23 07:40:55;;;;;;;8.20;7.50;;;24.80;99.90;;;;;;4952364;28;20880;-93
2022/07/23 07:43:23;;;;;;;9.07;8.27;;;24.90;99.90;;;;;;4924434;28;21560;-92
2022/07/23 07:45:51;;;;;;;8.57;7.87;;;24.40;99.90;;;;;;4922957;28;20213;-90
2022/07/23 07:48:16;;;;;;;7.30;6.80;;;24.50;99.90;;;;;;4927099;28;20446;-91
2022/07/23 07:50:42;;;;;;;8.20;7.50;;;24.80;99.90;;;;;;4930380;28;20449;-89
2022/07/23 07:53:08;;;;;;;8.17;7.47;;;25.00;99.60;;;;;;4933568;28;21471;-91
2022/07/23 07:55:34;;;;;;;8.90;8.10;;;25.20;98.60;;;;;;4962956;28;22662;-91
2022/07/23 07:58:00;;;;;;;9.33;8.53;;;25.40;98.40;;;;;;4926723;28;21086;-91
2022/07/23 08:00:26;;;;;;;9.07;8.40;;;25.50;97.50;;;;;;4926353;28;20450;-89
2022/07/23 08:02:54;;;;;;;7.97;7.37;;;25.60;96.70;;;;;;4927557;28;22215;-92
2022/07/23 08:05:25;;;;;;;7.73;7.13;;;25.50;97.10;;;;;;4959733;28;20203;-90
2022/07/23 08:07:54;;;;;;;8.10;7.40;;;25.50;96.50;;;;;;4932847;28;20443;-95
2022/07/23 08:10:19;;;;;;;7.13;6.63;;;25.60;96.80;;;;;;4937907;28;20694;-93
2022/07/23 08:12:47;;;;;;;7.33;6.83;;;26.10;95.70;;;;;;4946849;28;20642;-93
2022/07/23 08:15:14;;;;;;;8.00;7.30;;;26.30;94.80;;;;;;4936323;28;20210;-91
2022/07/23 08:17:41;;;;;;;7.50;7.00;;;26.30;94.70;;;;;;4943194;28;20443;-91
2022/07/23 08:20:08;;;;;;;7.53;6.93;;;26.30;93.40;;;;;;4936078;28;20506;-91
2022/07/23 08:22:57;;;;;;;7.50;6.93;;;25.90;93.00;;;;;;4944788;28;20475;-91
2022/07/23 08:25:32;;;;;;;7.30;6.70;;;25.70;93.60;;;;;;4940648;28;20454;-90
2022/07/23 08:28:18;;;;;;;8.33;7.67;;;25.70;95.10;;;;;;4926064;28;20973;-91
2022/07/23 08:30:44;;;;;;;8.63;7.90;;;25.50;95.70;;;;;;4921002;28;20484;-92
2022/07/23 08:33:13;;;;;;;8.97;8.10;;;25.20;96.40;;;;;;4925907;28;20573;-92
2022/07/23 08:35:50;;;;;;;9.10;7.50;;;25.20;96.70;;;;;;4926891;28;20434;-92
2022/07/23 08:38:19;;;;;;;8.37;7.70;;;24.80;96.60;;;;;;4928467;28;20663;-91
2022/07/23 08:40:53;;;;;;;8.13;7.53;;;24.30;97.50;;;;;;4927775;28;20449;-92
2022/07/23 08:43:24;;;;;;;8.40;7.67;;;24.50;98.20;;;;;;4933053;28;20857;-93
2022/07/23 08:45:52;;;;;;;9.23;8.53;;;24.90;97.50;;;;;;4927898;28;20447;-92
2022/07/23 08:48:22;;;;;;;9.10;8.40;;;25.00;97.50;;;;;;4931997;28;20463;-95
2022/07/23 08:50:56;;;;;;;9.53;8.83;;;25.40;97.40;;;;;;4931135;28;20481;-92
2022/07/23 08:53:23;;;;;;;8.70;8.10;;;25.70;96.50;;;;;;4924534;28;20821;-91
2022/07/23 08:55:53;;;;;;;8.13;7.63;;;26.10;95.70;;;;;;4939497;28;20833;-91
2022/07/23 08:58:20;;;;;;;9.10;8.40;;;26.40;95.80;;;;;;4940270;28;20504;-91
2022/07/23 09:00:53;;;;;;;8.50;7.80;;;26.20;95.20;;;;;;4928751;28;20451;-90
2022/07/23 09:03:38;;;;;;;8.40;7.70;;;26.10;94.60;;;;;;4929786;28;20877;-95
2022/07/23 09:06:24;;;;;;;9.33;8.43;;;26.00;96.10;;;;;;4938060;28;20438;-94
2022/07/23 09:08:50;;;;;;;8.93;7.83;;;25.90;96.10;;;;;;4932134;28;20462;-94
2022/07/23 09:11:16;;;;;;;8.30;7.70;;;25.60;96.10;;;;;;4927935;28;20450;-93
2022/07/23 09:13:47;;;;;;;9.30;8.70;;;25.70;96.80;;;;;;4933396;28;20190;-95
2022/07/23 09:16:14;;;;;;;8.90;8.30;;;25.70;95.40;;;;;;4925664;28;20973;-95
2022/07/23 09:18:49;;;;;;;9.70;8.90;;;25.90;96.20;;;;;;4926336;28;20446;-92
2022/07/23 09:21:38;;;;;;;9.13;8.43;;;26.10;96.70;;;;;;4931837;28;20513;-94
2022/07/23 09:24:08;;;;;;;9.70;8.90;;;26.20;94.60;;;;;;4929088;28;20510;-90
2022/07/23 09:26:39;;;;;;;9.40;8.60;;;26.00;94.20;;;;;;4946392;28;20467;-94
2022/07/23 09:29:05;;;;;;;8.90;8.10;;;26.20;96.60;;;;;;4926406;28;20521;-91
2022/07/23 09:31:33;;;;;;;9.07;8.37;;;26.50;96.90;;;;;;4924074;28;20476;-92
2022/07/23 09:34:14;;;;;;;9.20;8.50;;;26.70;96.30;;;;;;4930221;28;20192;-91
2022/07/23 09:36:40;;;;;;;8.90;8.10;;;26.60;95.20;;;;;;4928046;28;20786;-90
2022/07/23 09:39:06;;;;;;;9.77;9.07;;;26.60;96.70;;;;;;4959601;28;20450;-91
2022/07/23 09:41:37;;;;;;;9.80;9.00;;;27.00;94.40;;;;;;4933842;28;20442;-92
2022/07/23 09:44:14;;;;;;;10.30;9.50;;;27.10;94.50;;;;;;4931778;28;20816;-93
2022/07/23 09:46:40;;;;;;;9.50;8.63;;;26.80;94.80;;;;;;4925053;28;20440;-91
2022/07/23 09:49:21;;;;;;;9.23;8.53;;;26.70;93.60;;;;;;4929548;28;20541;-91
2022/07/23 09:51:57;;;;;;;9.67;8.90;;;26.40;94.50;;;;;;4931960;28;20992;-92
2022/07/23 09:54:28;;;;;;;9.73;9.03;;;26.20;94.40;;;;;;4930208;28;20498;-94
2022/07/23 09:56:55;;;;;;;9.00;8.40;;;26.10;94.00;;;;;;4927856;28;20445;-93
2022/07/23 09:59:28;;;;;;;9.53;8.67;;;26.20;94.90;;;;;;4939353;28;20457;-92
2022/07/23 10:01:56;;;;;;;9.70;9.00;;;26.50;94.20;;;;;;4926518;28;20550;-92
2022/07/23 10:04:23;;;;;;;9.33;8.53;;;26.20;94.40;;;;;;4925057;28;20443;-93
2022/07/23 10:06:52;;;;;;;9.60;8.80;;;26.10;94.80;;;;;;4931806;28;20786;-92
2022/07/23 10:09:32;;;;;;;8.63;8.00;;;26.10;95.30;;;;;;4929680;28;20443;-92
2022/07/23 10:14:44;;;;;;;9.57;8.87;;;26.60;95.20;;;;;;4932808;28;20513;-93
2022/07/23 10:17:10;;;;;;;9.70;8.80;;;27.20;94.10;;;;;;4922659;28;20466;-93
2022/07/23 10:19:36;;;;;;;9.50;8.80;;;27.60;93.60;;;;;;4930163;28;20442;-94
2022/07/23 10:22:05;;;;;;;9.33;8.73;;;28.30;92.20;;;;;;4927752;28;20183;-93
2022/07/23 10:24:53;;;;;;;9.13;8.53;;;28.60;91.60;;;;;;4927463;28;20191;-93
2022/07/23 10:27:42;;;;;;;10.83;9.93;;;29.10;90.10;;;;;;4925181;28;20841;-93
2022/07/23 10:30:21;;;;;;;10.70;9.90;;;27.80;90.40;;;;;;4935079;28;20550;-92
2022/07/23 10:33:12;;;;;;;10.70;10.00;;;26.50;92.60;;;;;;4928362;28;20474;-93
2022/07/23 10:35:50;;;;;;;10.30;9.50;;;26.30;92.90;;;;;;4927170;28;20461;-93
2022/07/23 10:38:21;;;;;;;10.20;9.40;;;25.90;94.00;;;;;;4929632;28;20525;-92
2022/07/23 10:41:01;;;;;;;10.00;9.27;;;26.20;94.90;;;;;;4936834;28;20514;-93
2022/07/23 10:43:27;;;;;;;9.60;8.90;;;26.30;93.40;;;;;;4940802;28;20822;-93
2022/07/23 10:45:56;;;;;;;9.50;8.70;;;26.50;93.20;;;;;;4936761;28;20509;-93
2022/07/23 10:48:25;;;;;;;10.03;9.20;;;26.50;93.50;;;;;;4934729;28;20454;-92
2022/07/23 10:51:27;;;;;;;9.90;9.20;;;26.50;92.80;;;;;;4939553;28;20477;-92
2022/07/23 10:53:55;;;;;;;9.80;9.00;;;26.50;92.30;;;;;;4921628;29;20985;-92
2022/07/23 10:56:55;;;;;;;8.70;8.10;;;26.80;92.10;;;;;;4931791;28;20443;-91
2022/07/23 10:59:21;;;;;;;8.10;7.53;;;27.30;92.60;;;;;;4941118;28;20977;-92
2022/07/23 11:01:47;;;;;;;8.47;7.87;;;27.70;90.80;;;;;;4937085;28;20450;-92
2022/07/23 11:04:13;;;;;;;8.90;8.13;;;28.40;90.40;;;;;;4939854;28;20199;-91
2022/07/23 11:06:50;;;;;;;9.10;8.40;;;29.10;90.60;;;;;;4937360;28;20187;-91
2022/07/23 11:09:37;;;;;;;8.87;8.17;;;29.70;88.30;;;;;;4936580;28;20537;-93
2022/07/23 11:12:21;;;;;;;8.47;7.70;;;29.70;90.20;;;;;;4944648;28;20521;-93
2022/07/23 11:15:05;;;;;;;8.73;7.97;;;30.20;86.10;;;;;;4941237;28;20871;-94
2022/07/23 11:17:35;;;;;;;8.90;7.93;;;30.60;87.30;;;;;;4944836;28;20447;-92
2022/07/23 11:20:09;;;;;;;9.30;8.60;;;30.80;86.10;;;;;;4942859;28;20438;-92
2022/07/23 11:22:36;;;;;;;9.57;8.77;;;30.90;81.60;;;;;;4945836;28;20796;-95
2022/07/23 11:25:02;;;;;;;9.70;8.97;;;29.60;82.70;;;;;;4962433;28;20439;-93
2022/07/23 11:27:37;;;;;;;8.33;7.80;;;28.80;88.30;;;;;;4946396;28;20509;-91
2022/07/23 11:30:03;;;;;;;8.80;8.20;;;28.30;87.50;;;;;;4963001;28;20669;-92
2022/07/23 11:32:34;;;;;;;9.30;8.70;;;27.70;88.50;;;;;;4945215;28;20967;-93
2022/07/23 11:35:01;;;;;;;9.00;8.20;;;27.60;90.20;;;;;;4941910;28;20995;-94
2022/07/23 11:37:35;;;;;;;9.00;8.20;;;27.90;90.20;;;;;;4941443;28;20442;-93
2022/07/23 11:40:11;;;;;;;10.00;9.20;;;28.10;89.30;;;;;;4934139;28;20442;-93
2022/07/23 11:42:38;;;;;;;9.00;8.33;;;28.40;88.50;;;;;;4934535;28;20449;-93
2022/07/23 11:45:07;;;;;;;8.40;7.70;;;28.80;88.70;;;;;;4934957;28;20450;-93
2022/07/23 11:47:33;;;;;;;9.33;8.70;;;29.00;88.50;;;;;;4928245;28;20465;-93
2022/07/23 11:50:02;;;;;;;9.07;8.37;;;28.60;90.40;;;;;;4931022;28;20451;-93
2022/07/23 11:52:28;;;;;;;8.97;8.37;;;28.40;90.20;;;;;;4927377;28;20219;-92
2022/07/23 11:54:59;;;;;;;9.03;8.40;;;28.50;86.70;;;;;;4932485;28;20964;-93
2022/07/23 11:57:31;;;;;;;9.50;8.80;;;28.60;85.80;;;;;;4926811;28;20801;-93
2022/07/23 12:00:03;;;;;;;8.53;7.93;;;29.10;90.50;;;;;;4952702;28;20869;-93
2022/07/23 12:02:28;;;;;;;7.97;7.37;;;29.80;85.40;;;;;;4940742;28;20438;-94
2022/07/23 12:04:54;;;;;;;8.07;7.47;;;30.70;84.30;;;;;;4942686;28;20453;-94
2022/07/23 12:07:44;;;;;;;8.53;7.87;;;30.70;82.70;;;;;;4929693;28;20214;-94
2022/07/23 12:10:13;;;;;;;8.23;7.73;;;30.90;80.70;;;;;;4940857;28;20195;-93
2022/07/23 12:12:42;;;;;;;7.87;7.37;;;31.00;79.10;;;;;;4943063;28;20527;-94
2022/07/23 12:15:10;;;;;;;8.73;8.23;;;31.40;75.90;;;;;;4935183;28;20517;-93
2022/07/23 12:17:37;;;;;;;9.10;8.50;;;31.50;80.00;;;;;;4934502;28;20964;-94
2022/07/23 12:20:09;;;;;;;8.57;7.87;;;31.10;76.10;;;;;;4930564;28;20449;-94
2022/07/23 12:22:49;;;;;;;7.67;6.97;;;31.10;79.10;;;;;;4928508;28;20450;-93
2022/07/23 12:25:20;;;;;;;7.83;7.33;;;31.10;79.00;;;;;;4934467;28;20454;-94
2022/07/23 12:27:57;;;;;;;7.60;7.10;;;31.60;79.20;;;;;;4927782;28;20703;-93
2022/07/23 12:30:26;;;;;;;7.77;7.27;;;31.80;76.50;;;;;;4940450;28;20434;-93
2022/07/23 12:32:54;;;;;;;7.90;7.30;;;31.60;78.90;;;;;;4968471;28;20996;-94
2022/07/23 12:35:21;;;;;;;7.97;7.37;;;31.50;74.10;;;;;;4931555;28;20528;-93
2022/07/23 12:37:49;;;;;;;7.77;7.27;;;31.60;77.60;;;;;;4926780;28;21222;-94
2022/07/23 12:40:22;;;;;;;8.27;7.63;;;31.70;78.50;;;;;;4926989;28;20445;-94
2022/07/23 12:42:50;;;;;;;7.60;7.10;;;32.30;74.70;;;;;;4930079;28;20453;-94
2022/07/23 12:45:16;;;;;;;8.23;7.63;;;31.90;71.10;;;;;;4929405;28;21735;-94
2022/07/23 12:47:58;;;;;;;8.17;7.60;;;30.70;72.50;;;;;;4941746;28;20810;-94
2022/07/23 12:50:35;;;;;;;7.67;7.07;;;30.20;77.00;;;;;;4929319;28;20450;-92
2022/07/23 12:53:06;;;;;;;7.60;7.10;;;30.30;76.30;;;;;;4931480;28;21203;-94
2022/07/23 12:55:32;;;;;;;8.07;7.47;;;30.70;78.80;;;;;;4933708;28;20518;-94
2022/07/23 12:58:12;;;;;;;8.00;7.40;;;31.00;75.70;;;;;;4931091;28;20933;-94
2022/07/23 13:01:03;;;;;;;8.20;7.50;;;31.20;75.80;;;;;;4925253;28;20183;-90
2022/07/23 13:03:33;;;;;;;7.67;7.17;;;30.70;73.30;;;;;;4937341;28;20460;-93